Time;durP1;ratioP1;P1;durP2;ratioP2;P2;SDS_P1;SDS_P2;PMS_P1;PMS_P2;Temp;Humidity;BMP_temperature;BMP_pressure;BME280_temperature;BME280_humidity;BME280_pressure;Samples;Min_cycle;Max_cycle;Signal;HPM_P1;HPM_P2
2022/06/20 00:00:41;;;;;;;1.05;0.70;;;;;;;28.44;34.80;98622.47;5122104;27;20454;-57
2022/06/20 00:03:19;;;;;;;1.30;0.80;;;;;;;28.44;34.81;98628.88;5122975;27;20050;-57
2022/06/20 00:05:44;;;;;;;1.70;0.82;;;;;;;28.44;34.92;98628.09;5114310;28;20452;-58
2022/06/20 00:08:10;;;;;;;1.70;1.00;;;;;;;28.41;35.06;98635.38;5096285;28;20568;-56
2022/06/20 00:10:39;;;;;;;1.35;0.90;;;;;;;28.40;35.01;98628.19;5111928;27;20189;-56
2022/06/20 00:13:05;;;;;;;1.95;0.90;;;;;;;28.43;35.05;98637.75;5111295;28;20494;-57
2022/06/20 00:15:34;;;;;;;1.50;1.02;;;;;;;28.41;35.07;98618.50;5102644;27;20105;-57
2022/06/20 00:18:01;;;;;;;1.83;1.00;;;;;;;28.40;35.09;98622.56;5110162;27;20133;-57
2022/06/20 00:20:28;;;;;;;1.90;1.00;;;;;;;28.40;35.00;98625.38;5109721;28;20081;-57
2022/06/20 00:22:54;;;;;;;1.80;0.95;;;;;;;28.40;34.94;98633.03;5123999;27;20136;-57
2022/06/20 00:25:20;;;;;;;1.88;0.98;;;;;;;28.40;34.97;98633.03;5120680;28;20443;-57
2022/06/20 00:27:46;;;;;;;1.85;1.00;;;;;;;28.38;34.91;98630.66;5131301;28;20127;-57
2022/06/20 00:30:15;;;;;;;1.30;0.93;;;;;;;28.38;34.76;98625.03;5131473;28;20050;-57
2022/06/20 00:32:40;;;;;;;2.05;1.10;;;;;;;28.41;34.83;98617.72;5118477;27;20051;-56
2022/06/20 00:35:06;;;;;;;1.48;0.90;;;;;;;28.42;34.66;98636.16;5121758;28;20518;-57
2022/06/20 00:37:31;;;;;;;1.35;0.90;;;;;;;28.42;34.99;98625.69;5121915;28;20044;-57
2022/06/20 00:39:57;;;;;;;1.23;0.90;;;;;;;28.40;35.12;98630.22;5130828;27;20096;-57
2022/06/20 00:42:23;;;;;;;1.55;1.05;;;;;;;28.37;34.98;98617.84;5128776;28;20035;-57
2022/06/20 00:44:57;;;;;;;1.35;0.95;;;;;;;28.39;34.99;98628.63;5101390;28;20054;-57
2022/06/20 00:47:29;;;;;;;1.75;1.00;;;;;;;28.38;34.77;98624.25;5110976;27;20055;-58
2022/06/20 00:50:13;;;;;;;1.60;1.00;;;;;;;28.39;34.78;98631.44;5110680;27;20503;-57
2022/06/20 00:52:48;;;;;;;1.75;1.05;;;;;;;28.40;34.69;98636.63;5103248;28;20035;-58
2022/06/20 00:55:20;;;;;;;1.58;1.00;;;;;;;28.40;34.63;98638.66;5106540;27;20039;-58
2022/06/20 00:57:51;;;;;;;1.73;1.02;;;;;;;28.40;34.50;98638.66;5118575;27;20503;-56
2022/06/20 01:00:20;;;;;;;1.35;0.80;;;;;;;28.38;34.38;98624.25;5133987;27;20038;-56
2022/06/20 01:02:49;;;;;;;1.15;0.85;;;;;;;28.38;34.53;98633.47;5130744;27;20087;-56
2022/06/20 01:05:32;;;;;;;1.42;1.00;;;;;;;28.39;34.41;98626.59;5133930;27;20039;-58
2022/06/20 01:08:07;;;;;;;1.80;1.10;;;;;;;28.39;34.39;98637.88;5131198;28;20126;-58
2022/06/20 01:10:42;;;;;;;1.50;1.00;;;;;;;28.41;34.50;98641.00;5110161;27;20044;-57
2022/06/20 01:13:15;;;;;;;1.58;1.00;;;;;;;28.40;34.37;98641.47;5105865;27;20075;-58
2022/06/20 01:15:42;;;;;;;1.98;1.15;;;;;;;28.38;34.37;98639.09;5108199;28;20035;-58
2022/06/20 01:18:17;;;;;;;1.40;0.90;;;;;;;28.39;34.45;98637.88;5098270;28;20114;-58
2022/06/20 01:20:46;;;;;;;1.50;0.98;;;;;;;28.39;34.45;98646.31;5091831;28;20040;-58
2022/06/20 01:23:27;;;;;;;1.95;1.00;;;;;;;28.39;34.56;98632.22;5088165;28;20419;-58
2022/06/20 01:26:23;;;;;;;1.45;1.05;;;;;;;28.39;34.39;98632.22;5111064;28;20050;-58
2022/06/20 01:28:53;;;;;;;1.27;0.93;;;;;;;28.38;34.37;98644.72;5097544;28;20559;-58
2022/06/20 01:31:20;;;;;;;1.40;1.02;;;;;;;28.38;34.39;98635.50;5127131;27;20474;-58
2022/06/20 01:33:49;;;;;;;2.08;1.10;;;;;;;28.39;34.36;98637.88;5128679;28;20031;-57
2022/06/20 01:39:03;;;;;;;2.22;1.20;;;;;;;28.39;34.33;98642.69;5128651;27;20460;-58
2022/06/20 01:44:17;;;;;;;1.45;1.08;;;;;;;28.39;34.53;98635.06;5119977;28;20081;-57
2022/06/20 01:46:43;;;;;;;1.63;1.10;;;;;;;28.39;34.28;98629.41;5128702;28;20043;-57
2022/06/20 01:49:16;;;;;;;1.70;1.02;;;;;;;28.39;34.31;98634.25;5111218;28;20040;-58
2022/06/20 01:51:55;;;;;;;2.30;1.00;;;;;;;28.40;34.43;98645.06;5124310;28;20514;-58
2022/06/20 01:54:22;;;;;;;2.10;1.20;;;;;;;28.40;34.25;98642.25;5117051;27;20039;-58
2022/06/20 01:56:51;;;;;;;1.88;1.08;;;;;;;28.40;34.31;98636.63;5123753;27;20043;-58
2022/06/20 01:59:21;;;;;;;1.77;1.10;;;;;;;28.39;34.30;98637.88;5142305;27;20075;-58
2022/06/20 02:01:48;;;;;;;1.50;0.98;;;;;;;28.38;34.33;98641.91;5130081;28;20047;-57
2022/06/20 02:04:17;;;;;;;1.48;0.95;;;;;;;28.37;34.37;98640.34;5119245;28;20091;-57
2022/06/20 02:06:44;;;;;;;2.05;1.10;;;;;;;28.37;34.48;98645.97;5107422;28;20098;-57
2022/06/20 02:09:11;;;;;;;2.35;1.23;;;;;;;28.39;34.41;98642.69;5109391;28;20040;-60
2022/06/20 02:11:41;;;;;;;1.67;1.20;;;;;;;28.39;34.30;98646.31;5106487;28;20051;-58
2022/06/20 02:14:18;;;;;;;1.95;1.10;;;;;;;28.39;34.25;98637.06;5108936;27;20079;-57
2022/06/20 02:16:47;;;;;;;1.70;1.10;;;;;;;28.36;34.33;98644.38;5108283;27;20044;-57
2022/06/20 02:19:16;;;;;;;1.80;1.20;;;;;;;28.37;34.17;98639.56;5106561;27;20227;-57
2022/06/20 02:21:45;;;;;;;1.50;1.00;;;;;;;28.37;34.24;98648.78;5098272;27;20084;-57
2022/06/20 02:24:20;;;;;;;2.00;1.20;;;;;;;28.37;34.32;98643.16;5117734;27;20031;-57
2022/06/20 02:26:50;;;;;;;1.70;1.00;;;;;;;28.37;34.49;98634.72;5103959;28;20130;-58
2022/06/20 02:29:22;;;;;;;2.17;1.17;;;;;;;28.38;34.36;98635.50;5105099;28;20039;-58
2022/06/20 02:31:54;;;;;;;1.80;1.17;;;;;;;28.38;34.38;98643.94;5109361;27;20039;-58
2022/06/20 02:34:22;;;;;;;2.33;1.40;;;;;;;28.38;34.48;98636.28;5108828;28;20123;-58
2022/06/20 02:36:49;;;;;;;1.50;0.98;;;;;;;28.38;34.40;98627.84;5105151;28;20380;-58
2022/06/20 02:39:14;;;;;;;1.80;1.20;;;;;;;28.39;34.39;98637.06;5107982;27;20039;-57
2022/06/20 02:41:41;;;;;;;2.05;1.20;;;;;;;28.40;34.37;98639.44;5107141;27;20055;-57
2022/06/20 02:44:14;;;;;;;3.65;1.08;;;;;;;28.40;34.19;98644.28;5095300;28;20040;-58
2022/06/20 02:46:41;;;;;;;1.50;1.10;;;;;;;28.39;34.23;98637.88;5107896;28;20043;-58
2022/06/20 02:49:09;;;;;;;1.95;1.17;;;;;;;28.39;34.31;98631.44;5108515;27;20104;-58
2022/06/20 02:51:42;;;;;;;1.60;1.08;;;;;;;28.39;34.36;98639.88;5107162;28;20043;-58
2022/06/20 02:54:12;;;;;;;2.10;1.00;;;;;;;28.38;34.42;98633.47;5111753;27;20040;-57
2022/06/20 02:56:43;;;;;;;1.70;1.10;;;;;;;28.37;34.42;98629.09;5094080;28;20051;-59
2022/06/20 02:59:16;;;;;;;1.42;1.00;;;;;;;28.39;34.40;98643.50;5111492;27;20412;-57
2022/06/20 03:01:57;;;;;;;1.83;1.00;;;;;;;28.39;34.39;98646.31;5092271;28;20036;-58
2022/06/20 03:04:23;;;;;;;1.55;1.10;;;;;;;28.38;34.33;98633.47;5089786;27;20112;-57
2022/06/20 03:06:57;;;;;;;1.98;1.25;;;;;;;28.37;34.40;98636.75;5108583;28;20480;-57
2022/06/20 03:09:27;;;;;;;1.52;1.10;;;;;;;28.38;34.48;98630.66;5109767;27;20571;-59
2022/06/20 03:11:54;;;;;;;2.10;1.20;;;;;;;28.36;34.40;98621.88;5111013;27;20066;-56
2022/06/20 03:14:23;;;;;;;1.83;1.08;;;;;;;28.37;34.33;98636.75;5107139;28;20107;-56
2022/06/20 03:16:49;;;;;;;1.92;1.02;;;;;;;28.37;34.38;98629.09;5108019;28;20419;-56
2022/06/20 03:19:25;;;;;;;1.75;0.90;;;;;;;28.37;34.49;98631.13;5111755;27;20499;-56
2022/06/20 03:21:53;;;;;;;1.67;1.10;;;;;;;28.36;34.33;98643.56;5108477;27;20460;-57
2022/06/20 03:24:21;;;;;;;1.73;1.15;;;;;;;28.37;34.37;98633.94;5108704;27;20043;-60
2022/06/20 03:26:48;;;;;;;1.55;1.02;;;;;;;28.37;34.15;98640.34;5108149;28;20032;-59
2022/06/20 03:29:16;;;;;;;1.58;1.05;;;;;;;28.38;34.33;98625.03;5117989;27;20075;-58
2022/06/20 03:31:43;;;;;;;1.98;1.25;;;;;;;28.37;34.18;98631.91;5106445;28;20044;-57
2022/06/20 03:34:09;;;;;;;4.43;1.20;;;;;;;28.37;34.30;98636.75;5104750;28;20031;-58
2022/06/20 03:36:35;;;;;;;1.65;0.98;;;;;;;28.33;34.42;98628.38;5107957;27;20035;-58
2022/06/20 03:39:03;;;;;;;4.07;1.40;;;;;;;28.35;34.40;98642.78;5108368;27;20055;-59
2022/06/20 03:41:29;;;;;;;1.38;0.95;;;;;;;28.35;34.35;98627.94;5109144;27;20078;-58
2022/06/20 03:44:05;;;;;;;1.40;1.00;;;;;;;28.37;34.45;98642.38;5107220;27;20071;-58
2022/06/20 03:46:41;;;;;;;1.70;1.10;;;;;;;28.37;34.40;98645.97;5108484;27;20070;-58
2022/06/20 03:49:21;;;;;;;1.77;1.15;;;;;;;28.36;34.42;98650.03;5102410;27;20046;-59
2022/06/20 03:51:54;;;;;;;1.70;1.13;;;;;;;28.35;34.49;98647.63;5105472;28;20063;-57
2022/06/20 03:54:30;;;;;;;2.13;1.20;;;;;;;28.33;34.41;98650.88;5099960;28;20121;-57
2022/06/20 03:57:06;;;;;;;1.77;1.15;;;;;;;28.33;34.54;98650.88;5107943;27;20051;-58
2022/06/20 03:59:43;;;;;;;3.08;1.23;;;;;;;28.35;34.51;98665.28;5106849;27;20048;-57
2022/06/20 04:02:20;;;;;;;1.80;1.10;;;;;;;28.37;34.30;98662.06;5108938;27;20517;-57
2022/06/20 04:04:58;;;;;;;1.42;1.10;;;;;;;28.35;34.46;98656.06;5106809;28;20042;-57
2022/06/20 04:07:30;;;;;;;1.80;1.10;;;;;;;28.35;34.55;98662.47;5108031;28;20084;-57
2022/06/20 04:12:48;;;;;;;2.00;1.10;;;;;;;28.33;34.41;98675.41;5107551;27;20046;-58
2022/06/20 04:15:27;;;;;;;1.95;1.02;;;;;;;28.32;34.34;98685.09;5111374;27;20824;-58
2022/06/20 04:20:50;;;;;;;1.52;1.00;;;;;;;28.33;34.38;98679.00;5112406;27;20100;-58
2022/06/20 04:23:29;;;;;;;1.60;1.10;;;;;;;28.33;34.34;98689.47;5099923;27;20475;-57
2022/06/20 04:26:23;;;;;;;1.77;1.00;;;;;;;28.35;34.66;98689.81;5111852;27;20035;-57
2022/06/20 04:28:54;;;;;;;1.60;1.10;;;;;;;28.33;34.81;98695.09;5079811;27;20047;-58
2022/06/20 04:31:42;;;;;;;1.75;1.10;;;;;;;28.33;34.85;98704.34;5107725;28;20092;-58
2022/06/20 04:34:39;;;;;;;1.25;0.90;;;;;;;28.33;34.87;98700.72;5110319;28;20047;-58
2022/06/20 04:37:22;;;;;;;1.73;1.00;;;;;;;28.32;35.08;98704.78;5106525;27;20051;-57
2022/06/20 04:40:44;;;;;;;1.80;0.93;;;;;;;28.31;35.04;98686.34;5104383;28;20070;-57
2022/06/20 04:43:19;;;;;;;1.45;0.90;;;;;;;28.30;34.97;98708.03;5008221;28;20309;-58
2022/06/20 04:46:17;;;;;;;1.73;1.00;;;;;;;28.31;35.18;98717.28;5008768;28;20454;-57
2022/06/20 04:48:47;;;;;;;1.52;1.05;;;;;;;28.30;35.06;98716.47;5004220;28;20054;-58
2022/06/20 04:51:16;;;;;;;1.67;1.00;;;;;;;28.31;35.25;98714.47;5010073;28;20115;-58
2022/06/20 04:53:45;;;;;;;1.85;0.95;;;;;;;28.31;35.57;98704.00;5013919;28;20551;-58
2022/06/20 04:56:13;;;;;;;1.65;1.00;;;;;;;28.31;35.59;98720.06;5009853;28;20049;-58
2022/06/20 04:58:53;;;;;;;1.58;1.00;;;;;;;28.30;35.53;98707.22;5009220;28;20049;-58
2022/06/20 05:01:20;;;;;;;1.88;1.10;;;;;;;28.30;35.54;98710.84;5012657;28;20082;-57
2022/06/20 05:03:55;;;;;;;1.80;1.02;;;;;;;28.31;35.57;98714.47;5010076;28;20553;-58
2022/06/20 05:06:25;;;;;;;1.85;0.95;;;;;;;28.29;35.73;98709.25;5006441;28;20441;-58
2022/06/20 05:08:59;;;;;;;0.93;0.70;;;;;;;28.29;35.73;98716.88;5025528;28;20137;-58
2022/06/20 05:11:27;;;;;;;1.20;0.82;;;;;;;28.29;36.03;98700.81;5010785;28;20041;-58
2022/06/20 05:14:17;;;;;;;1.33;0.95;;;;;;;28.26;36.01;98715.75;5074698;27;20051;-56
2022/06/20 05:16:47;;;;;;;1.40;1.00;;;;;;;28.25;36.03;98711.34;5121297;28;20054;-57
2022/06/20 05:19:24;;;;;;;1.02;0.80;;;;;;;28.23;35.87;98709.00;5105455;27;20063;-59
2022/06/20 05:21:53;;;;;;;1.30;0.90;;;;;;;28.22;36.02;98720.69;5110448;27;20083;-57
2022/06/20 05:24:28;;;;;;;1.70;0.80;;;;;;;28.22;36.16;98717.88;5110232;27;20036;-57
2022/06/20 05:26:54;;;;;;;12.52;1.23;;;;;;;28.26;39.57;98718.56;5109878;28;20044;-66
2022/06/20 05:29:29;;;;;;;1.88;0.90;;;;;;;28.28;36.29;98718.09;5097841;28;20126;-59
2022/06/20 05:31:59;;;;;;;3.17;1.00;;;;;;;28.35;36.36;98715.91;5096585;28;20503;-59
2022/06/20 05:34:27;;;;;;;7.25;1.30;;;;;;;28.34;36.51;98714.34;5110466;27;20040;-60
2022/06/20 05:37:36;;;;;;;6.63;1.20;;;;;;;28.36;36.49;98733.59;5105162;27;20102;-60
2022/06/20 05:40:31;;;;;;;6.88;1.40;;;;;;;28.36;36.48;98722.34;5062806;28;20541;-59
2022/06/20 05:42:58;;;;;;;11.25;1.50;;;;;;;28.34;36.71;98730.44;5058257;28;20142;-60
2022/06/20 05:45:26;;;;;;;7.45;1.27;;;;;;;28.35;36.35;98744.03;5063540;28;20091;-60
2022/06/20 05:47:54;;;;;;;6.63;1.13;;;;;;;28.35;36.61;98735.59;5066019;28;20094;-60
2022/06/20 05:50:46;;;;;;;9.15;1.25;;;;;;;28.35;36.50;98746.84;5065204;28;20132;-59
2022/06/20 05:53:30;;;;;;;6.03;1.30;;;;;;;28.32;36.60;98747.75;5066558;28;20194;-60
2022/06/20 05:55:58;;;;;;;5.63;1.10;;;;;;;28.33;36.58;98738.09;5059048;28;20127;-60
2022/06/20 05:58:29;;;;;;;8.25;1.40;;;;;;;28.32;36.58;98756.19;5067192;28;20044;-59
2022/06/20 06:01:02;;;;;;;5.45;1.42;;;;;;;28.33;36.57;98757.78;5061562;28;20049;-59
2022/06/20 06:03:48;;;;;;;3.75;1.20;;;;;;;28.44;36.22;98755.47;5055756;28;20236;-59
2022/06/20 06:06:22;;;;;;;3.05;1.10;;;;;;;28.33;37.01;98763.41;5069821;28;20051;-59
2022/06/20 06:09:11;;;;;;;2.55;1.05;;;;;;;28.33;36.76;98754.97;5068642;28;20056;-59
2022/06/20 06:11:42;;;;;;;6.68;1.20;;;;;;;28.34;36.66;98764.97;5065842;28;20083;-59
2022/06/20 06:14:20;;;;;;;4.50;1.30;;;;;;;28.35;36.50;98763.75;5065165;28;20135;-59
2022/06/20 06:16:53;;;;;;;3.92;1.02;;;;;;;28.35;36.54;98762.94;5112741;27;20044;-59
2022/06/20 06:19:45;;;;;;;1.77;1.00;;;;;;;28.33;36.62;98769.03;5109271;27;20055;-59
2022/06/20 06:22:39;;;;;;;4.15;1.05;;;;;;;28.33;36.62;98769.03;5102453;27;20051;-60
2022/06/20 06:25:23;;;;;;;3.47;0.98;;;;;;;28.36;36.49;98775.78;5100568;27;20036;-60
2022/06/20 06:27:53;;;;;;;3.70;1.13;;;;;;;28.36;36.51;98779.41;5115461;28;20071;-60
2022/06/20 06:30:20;;;;;;;2.20;1.10;;;;;;;28.38;36.49;98776.94;5113322;27;20072;-60
2022/06/20 06:32:56;;;;;;;4.75;1.20;;;;;;;28.39;36.67;98778.50;5108088;28;20075;-60
2022/06/20 06:35:31;;;;;;;1.95;1.08;;;;;;;28.39;36.71;98788.97;5113313;27;20046;-60
2022/06/20 06:38:01;;;;;;;1.67;0.90;;;;;;;28.37;36.80;98785.81;5112294;27;20309;-60
2022/06/20 06:40:35;;;;;;;1.65;1.13;;;;;;;28.33;36.76;98780.28;5107491;28;20527;-61
2022/06/20 06:43:19;;;;;;;2.75;1.25;;;;;;;28.30;36.95;98786.78;5107820;27;20051;-61
2022/06/20 06:45:46;;;;;;;2.72;1.30;;;;;;;28.30;37.22;98789.59;5103325;27;20043;-61
2022/06/20 06:48:19;;;;;;;2.83;1.17;;;;;;;28.32;37.22;98791.97;5107320;27;20607;-61
2022/06/20 06:50:57;;;;;;;1.88;1.05;;;;;;;28.30;37.35;98783.97;5106073;27;20061;-61
2022/06/20 06:53:46;;;;;;;4.10;1.20;;;;;;;28.33;37.64;98788.72;5101541;27;20043;-61
2022/06/20 06:56:35;;;;;;;2.38;1.10;;;;;;;28.34;37.76;98790.28;5103821;27;21394;-61
2022/06/20 06:59:16;;;;;;;1.60;1.15;;;;;;;28.31;37.81;98799.63;5103701;28;20071;-62
2022/06/20 07:01:47;;;;;;;2.60;1.20;;;;;;;28.28;37.94;98789.22;5104472;27;20071;-61
2022/06/20 07:04:25;;;;;;;4.68;1.25;;;;;;;28.22;38.21;98786.16;5099958;27;20048;-60
2022/06/20 07:06:50;;;;;;;1.63;1.10;;;;;;;28.24;38.56;98792.13;5087349;27;20066;-71
2022/06/20 07:09:37;;;;;;;3.97;1.38;;;;;;;28.25;39.20;98793.69;5090119;27;20083;-59
2022/06/20 07:12:14;;;;;;;1.77;1.00;;;;;;;28.26;39.35;98797.31;5097945;27;20158;-60
2022/06/20 07:14:42;;;;;;;2.63;1.08;;;;;;;28.29;39.58;98792.81;5086009;27;20044;-60
2022/06/20 07:17:20;;;;;;;3.35;1.50;;;;;;;28.32;39.54;98791.97;5093061;27;20039;-59
2022/06/20 07:19:48;;;;;;;1.13;0.80;;;;;;;28.33;39.57;98785.91;5092512;27;20039;-61
2022/06/20 07:22:15;;;;;;;4.13;1.20;;;;;;;28.39;39.58;98795.38;5096234;27;20130;-62
2022/06/20 07:24:43;;;;;;;2.10;1.13;;;;;;;28.37;39.53;98780.97;5096151;27;20051;-62
2022/06/20 07:27:28;;;;;;;1.30;0.90;;;;;;;28.36;39.71;98785.03;5084244;28;20042;-62
2022/06/20 07:30:03;;;;;;;3.38;1.23;;;;;;;28.38;39.55;98788.19;5105972;28;20032;-61
2022/06/20 07:32:58;;;;;;;6.70;1.10;;;;;;;28.38;39.68;98791.00;5101852;27;20044;-61
2022/06/20 07:35:30;;;;;;;1.10;0.88;;;;;;;28.39;39.52;98783.34;5096669;28;20132;-65
2022/06/20 07:38:29;;;;;;;1.90;1.10;;;;;;;28.40;39.59;98779.31;5106270;27;20098;-61
2022/06/20 07:41:04;;;;;;;1.33;0.90;;;;;;;28.41;39.45;98784.47;5082229;27;20060;-61
2022/06/20 07:43:37;;;;;;;1.77;1.05;;;;;;;28.43;39.40;98778.41;5091420;27;20530;-61
2022/06/20 07:46:14;;;;;;;;;;;;;;;28.49;39.29;98785.06;5100225;28;20087;-63
2022/06/20 07:48:45;;;;;;;2.00;1.10;;;;;;;28.45;39.30;98785.19;5098496;27;19915;-61
2022/06/20 07:51:30;;;;;;;2.42;1.10;;;;;;;28.40;39.43;98776.47;5098640;27;20078;-62
2022/06/20 07:54:10;;;;;;;1.83;1.15;;;;;;;28.35;39.39;98775.00;5105326;27;20051;-62
2022/06/20 07:56:47;;;;;;;1.15;0.95;;;;;;;28.40;39.53;98771.66;5103662;27;20056;-61
2022/06/20 07:59:27;;;;;;;2.63;1.30;;;;;;;28.42;39.29;98769.16;5099474;27;20097;-59
2022/06/20 08:01:57;;;;;;;1.80;1.10;;;;;;;28.33;38.87;98771.84;5105480;27;20039;-61
2022/06/20 08:04:32;;;;;;;3.45;1.42;;;;;;;28.08;40.33;98774.47;5083891;27;20367;-60
2022/06/20 08:07:02;;;;;;;4.13;1.30;;;;;;;28.02;40.35;98770.63;5096971;27;20051;-60
2022/06/20 08:09:42;;;;;;;2.00;1.10;;;;;;;28.06;40.47;98777.72;5095781;28;20052;-62
2022/06/20 08:12:22;;;;;;;2.00;1.20;;;;;;;28.15;40.32;98782.75;5103116;27;20039;-66
2022/06/20 08:15:03;;;;;;;2.42;1.20;;;;;;;28.19;40.36;98774.97;5100976;27;20052;-62
2022/06/20 08:17:30;;;;;;;1.83;1.20;;;;;;;28.24;40.14;98780.88;5104187;27;20082;-61
2022/06/20 08:19:57;;;;;;;4.40;1.20;;;;;;;28.21;40.07;98773.31;5102426;27;20454;-60
2022/06/20 08:22:34;;;;;;;2.97;1.30;;;;;;;28.28;40.11;98777.16;5100903;27;20332;-59
2022/06/20 08:25:08;;;;;;;2.05;1.13;;;;;;;28.29;40.08;98778.75;5105064;28;21384;-61
2022/06/20 08:27:43;;;;;;;2.30;1.20;;;;;;;28.36;40.01;98775.78;5107520;27;20162;-61
2022/06/20 08:30:34;;;;;;;4.68;1.23;;;;;;;28.40;39.88;98779.31;5102942;28;20162;-61
2022/06/20 08:33:09;;;;;;;3.13;1.45;;;;;;;28.36;39.82;98779.41;5107821;27;20039;-60
2022/06/20 08:35:54;;;;;;;1.90;1.10;;;;;;;28.41;39.81;98770.41;5101852;27;20043;-61
2022/06/20 08:38:40;;;;;;;2.00;1.20;;;;;;;28.41;39.26;98770.41;5095139;27;20047;-60
2022/06/20 08:41:20;;;;;;;1.67;1.20;;;;;;;28.09;40.16;98774.03;5102865;27;20047;-60
2022/06/20 08:44:04;;;;;;;2.42;1.23;;;;;;;27.96;40.44;98765.50;5102526;27;20079;-57
2022/06/20 08:47:00;;;;;;;2.95;1.40;;;;;;;27.96;40.41;98767.53;5104331;28;20065;-57
2022/06/20 08:49:51;;;;;;;2.28;1.10;;;;;;;28.02;40.11;98760.16;5098260;28;20052;-57
2022/06/20 08:52:41;;;;;;;1.98;1.10;;;;;;;28.14;39.93;98773.47;5106552;27;20035;-58
2022/06/20 08:55:10;;;;;;;4.03;1.30;;;;;;;28.19;39.81;98760.94;5101777;28;20055;-58
2022/06/20 08:57:56;;;;;;;3.45;1.20;;;;;;;28.18;39.83;98767.78;5097747;27;20047;-58
2022/06/20 09:00:50;;;;;;;1.88;1.13;;;;;;;28.23;39.61;98770.06;5098923;27;20104;-58
2022/06/20 09:03:24;;;;;;;1.70;1.10;;;;;;;28.25;39.65;98770.41;5084687;28;20056;-58
2022/06/20 09:06:10;;;;;;;1.75;1.00;;;;;;;28.27;39.62;98767.94;5108117;27;20052;-59
2022/06/20 09:08:51;;;;;;;1.60;1.10;;;;;;;28.30;39.26;98769.09;5099221;27;20058;-58
2022/06/20 09:11:54;;;;;;;4.47;1.20;;;;;;;28.31;39.36;98760.25;5100238;28;20048;-58
2022/06/20 09:15:02;;;;;;;2.20;1.30;;;;;;;28.35;39.20;98765.75;5105400;27;20043;-58
2022/06/20 09:17:42;;;;;;;2.05;1.40;;;;;;;28.37;38.97;98761.28;5100792;27;20454;-59
2022/06/20 09:20:13;;;;;;;2.60;1.40;;;;;;;28.33;39.35;98752.16;5098370;27;20545;-59
2022/06/20 09:22:57;;;;;;;3.33;1.55;;;;;;;28.38;39.49;98750.81;5106613;27;20518;-59
2022/06/20 09:25:49;;;;;;;3.15;1.45;;;;;;;28.38;39.34;98756.47;5102859;28;20040;-59
2022/06/20 09:28:20;;;;;;;1.95;1.30;;;;;;;28.21;39.17;98762.06;5103445;27;20051;-60
2022/06/20 09:30:57;;;;;;;1.77;1.13;;;;;;;27.99;40.20;98755.41;5098075;27;20044;-60
2022/06/20 09:33:38;;;;;;;3.00;1.42;;;;;;;27.91;40.56;98754.00;5095956;27;20087;-58
2022/06/20 09:36:12;;;;;;;2.30;1.20;;;;;;;27.97;40.54;98755.06;5099942;27;20054;-59
2022/06/20 09:38:52;;;;;;;1.80;1.35;;;;;;;28.08;40.17;98755.59;5099758;27;20522;-59
2022/06/20 09:41:24;;;;;;;2.13;1.40;;;;;;;28.15;40.15;98765.88;5099874;27;20058;-59
2022/06/20 09:44:19;;;;;;;2.10;1.27;;;;;;;28.17;40.12;98746.53;5099004;27;20138;-58
2022/06/20 09:47:07;;;;;;;1.88;1.25;;;;;;;28.25;39.97;98745.09;5103143;27;20499;-58
2022/06/20 09:49:51;;;;;;;2.45;1.42;;;;;;;28.28;40.00;98749.03;5102573;28;20048;-59
2022/06/20 09:52:46;;;;;;;2.20;1.20;;;;;;;28.26;40.02;98741.06;5100062;27;20044;-58
2022/06/20 09:55:27;;;;;;;2.05;1.30;;;;;;;28.31;39.91;98737.75;5089820;28;20436;-58
2022/06/20 09:58:04;;;;;;;2.10;1.33;;;;;;;28.36;39.84;98739.22;5086439;28;21509;-58
2022/06/20 10:00:45;;;;;;;2.25;1.27;;;;;;;28.39;39.50;98741.94;5101276;28;20055;-58
2022/06/20 10:03:37;;;;;;;3.80;1.10;;;;;;;28.31;38.94;98740.56;5098836;27;20537;-58
2022/06/20 10:06:32;;;;;;;3.40;1.30;;;;;;;27.95;38.08;98735.81;5083588;28;20144;-56
2022/06/20 10:09:19;;;;;;;2.42;1.38;;;;;;;27.55;37.39;98726.72;5100334;27;20124;-58
2022/06/20 10:11:52;;;;;;;5.70;1.20;;;;;;;27.22;37.24;98730.72;5096488;27;20063;-58
2022/06/20 10:14:48;;;;;;;2.33;1.48;;;;;;;26.91;36.74;98718.94;5097807;27;20044;-58
2022/06/20 10:17:36;;;;;;;2.85;1.30;;;;;;;26.75;36.68;98719.66;5102799;27;20039;-58
2022/06/20 10:20:17;;;;;;;2.88;1.50;;;;;;;26.60;36.00;98714.34;5108636;27;20047;-58
2022/06/20 10:22:55;;;;;;;3.90;1.50;;;;;;;26.46;36.08;98714.63;5107363;27;20661;-58
2022/06/20 10:25:45;;;;;;;4.55;1.73;;;;;;;26.49;36.74;98710.94;5108673;28;20051;-58
2022/06/20 10:28:11;;;;;;;6.40;2.17;;;;;;;26.58;36.35;98711.19;5113525;27;20043;-58
2022/06/20 10:31:06;;;;;;;8.57;2.70;;;;;;;26.59;36.71;98701.56;5112316;27;20111;-58
2022/06/20 10:33:57;;;;;;;9.60;2.53;;;;;;;26.66;36.67;98694.22;5109196;27;20092;-58
2022/06/20 10:36:41;;;;;;;7.80;2.83;;;;;;;26.69;35.94;98696.16;5111165;27;20064;-58
2022/06/20 10:39:25;;;;;;;7.80;2.58;;;;;;;26.69;36.25;98699.75;5103726;27;20481;-58
2022/06/20 10:42:13;;;;;;;6.88;2.20;;;;;;;26.77;36.49;98689.16;5107964;28;20511;-58
2022/06/20 10:45:06;;;;;;;8.65;2.28;;;;;;;26.72;36.17;98693.28;5113795;27;20039;-58
2022/06/20 10:48:02;;;;;;;4.57;2.03;;;;;;;26.76;36.06;98681.97;5111034;28;20056;-58
2022/06/20 10:50:36;;;;;;;6.68;2.42;;;;;;;26.82;39.15;98681.03;5104079;28;20054;-57
2022/06/20 10:53:09;;;;;;;10.45;4.50;;;;;;;26.95;40.80;98671.94;5103708;27;20523;-58
2022/06/20 10:56:06;;;;;;;22.17;13.65;;;;;;;27.21;39.63;98676.56;5100478;28;20047;-58
2022/06/20 10:59:00;;;;;;;16.38;7.65;;;;;;;27.28;37.78;98679.22;5100188;27;20577;-58
2022/06/20 11:01:33;;;;;;;11.90;4.78;;;;;;;27.21;37.22;98673.75;5099452;27;20075;-59
2022/06/20 11:04:12;;;;;;;10.32;3.40;;;;;;;27.15;38.04;98673.53;5111326;27;20765;-59
2022/06/20 11:06:45;;;;;;;10.35;3.30;;;;;;;27.30;38.90;98664.75;5107064;27;20154;-59
2022/06/20 11:09:29;;;;;;;;;;;;;;;27.43;36.84;98671.25;5096626;27;20738;-59
2022/06/20 11:12:08;;;;;;;13.48;5.32;;;;;;;27.38;36.38;98661.34;5102479;27;19975;-59
2022/06/20 11:14:53;;;;;;;7.43;3.83;;;;;;;27.33;36.81;98652.63;5098308;27;21189;-59
2022/06/20 11:17:41;;;;;;;10.43;3.50;;;;;;;27.41;35.74;98652.03;5101883;28;20050;-59
2022/06/20 11:20:19;;;;;;;7.68;2.70;;;;;;;27.27;37.14;98652.38;5106595;27;22008;-59
2022/06/20 11:23:06;;;;;;;11.07;5.00;;;;;;;27.39;38.00;98657.31;5111910;27;20099;-59
2022/06/20 11:25:41;;;;;;;10.90;5.43;;;;;;;27.54;36.54;98645.72;5117708;27;20083;-59
2022/06/20 11:28:39;;;;;;;8.10;4.07;;;;;;;27.53;35.85;98639.31;5107610;27;20035;-61
2022/06/20 11:31:20;;;;;;;9.65;4.43;;;;;;;27.53;35.56;98639.31;5114520;27;20047;-58
2022/06/20 11:34:09;;;;;;;7.57;3.40;;;;;;;27.39;34.84;98637.63;5098883;28;20036;-59
2022/06/20 11:37:00;;;;;;;7.38;2.67;;;;;;;27.21;34.86;98645.69;5111101;27;20043;-60
2022/06/20 11:39:40;;;;;;;6.93;2.38;;;;;;;27.02;35.38;98638.09;5103846;28;20051;-60
2022/06/20 11:42:10;;;;;;;5.60;2.47;;;;;;;26.84;35.10;98647.69;5103700;27;20045;-59
2022/06/20 11:44:47;;;;;;;5.20;2.30;;;;;;;26.65;37.74;98631.72;5106316;28;20050;-60
2022/06/20 11:47:40;;;;;;;4.20;2.40;;;;;;;26.58;40.51;98634.66;5103830;28;20810;-61
2022/06/20 11:50:25;;;;;;;3.55;1.85;;;;;;;26.49;39.14;98628.84;5102423;27;20790;-58
2022/06/20 11:53:14;;;;;;;4.88;1.90;;;;;;;26.45;38.23;98626.13;5104813;27;20423;-58
2022/06/20 11:55:48;;;;;;;2.80;1.75;;;;;;;26.31;37.65;98624.38;5093257;27;20063;-59
2022/06/20 11:58:16;;;;;;;3.38;1.70;;;;;;;26.30;38.83;98628.41;5104626;27;20282;-59
2022/06/20 12:01:12;;;;;;;2.97;1.58;;;;;;;26.40;41.09;98614.59;5108282;27;20056;-60
2022/06/20 12:03:54;;;;;;;3.55;1.60;;;;;;;26.49;40.20;98617.63;5098352;28;20609;-58
2022/06/20 12:06:37;;;;;;;3.40;1.50;;;;;;;26.38;38.86;98617.03;5106227;28;20051;-59
2022/06/20 12:09:17;;;;;;;2.00;1.20;;;;;;;26.38;41.69;98612.22;5119964;28;20288;-59
2022/06/20 12:12:19;;;;;;;3.20;1.65;;;;;;;26.45;41.43;98616.91;5122826;28;20275;-59
2022/06/20 12:15:18;;;;;;;3.35;1.38;;;;;;;26.39;39.78;98605.41;5116277;27;20108;-59
2022/06/20 12:18:01;;;;;;;4.22;1.30;;;;;;;26.23;38.97;98600.50;5100023;27;20039;-58
2022/06/20 12:23:36;;;;;;;2.85;1.20;;;;;;;26.30;42.74;98602.38;5104826;27;20460;-58
2022/06/20 12:26:32;;;;;;;2.35;1.20;;;;;;;26.33;40.74;98602.28;5104571;27;20048;-58
2022/06/20 12:29:00;;;;;;;1.77;1.00;;;;;;;26.28;39.80;98594.38;5104903;28;20046;-58
2022/06/20 12:31:33;;;;;;;1.35;1.00;;;;;;;26.18;41.93;98574.97;5107337;28;20055;-59
2022/06/20 12:34:04;;;;;;;;;;;;;;;26.28;42.86;98585.16;5100923;27;20100;-58